Time;durP1;ratioP1;P1;durP2;ratioP2;P2;SDS_P1;SDS_P2;PMS_P1;PMS_P2;Temp;Humidity;BMP_temperature;BMP_pressure;BME280_temperature;BME280_humidity;BME280_pressure;Samples;Min_cycle;Max_cycle;Signal;HPM_P1;HPM_P2
2022/07/05 00:01:44;;;;;;;5.32;2.25;;;15.40;99.90;;;;;;5085229;28;20048;-73
2022/07/05 00:04:10;;;;;;;4.72;2.28;;;15.30;99.90;;;;;;5073018;28;20040;-73
2022/07/05 00:06:36;;;;;;;5.80;2.50;;;15.30;99.90;;;;;;5072078;28;20514;-73
2022/07/05 00:09:01;;;;;;;6.07;2.72;;;15.20;99.90;;;;;;5071126;28;20518;-72
2022/07/05 00:11:27;;;;;;;5.10;2.80;;;15.20;99.90;;;;;;5072236;28;20044;-72
2022/07/05 00:13:53;;;;;;;4.13;2.53;;;15.10;99.90;;;;;;5065105;28;20408;-73
2022/07/05 00:16:18;;;;;;;4.53;2.78;;;15.10;99.90;;;;;;5074548;28;20411;-73
2022/07/05 00:18:44;;;;;;;4.95;2.80;;;15.00;99.90;;;;;;5071409;28;20044;-73
2022/07/05 00:21:10;;;;;;;4.22;2.90;;;15.00;99.90;;;;;;5074108;28;20055;-72
2022/07/05 00:23:35;;;;;;;8.43;2.80;;;14.90;99.90;;;;;;5066101;28;20044;-72
2022/07/05 00:26:01;;;;;;;5.40;3.30;;;14.80;99.90;;;;;;5074239;28;20558;-73
2022/07/05 00:28:27;;;;;;;4.63;3.00;;;14.80;99.90;;;;;;5083402;28;20036;-73
2022/07/05 00:30:52;;;;;;;3.47;2.80;;;14.80;99.90;;;;;;5067755;28;20048;-72
2022/07/05 00:33:18;;;;;;;4.80;3.03;;;14.70;99.90;;;;;;5087695;28;20398;-73
2022/07/05 00:35:44;;;;;;;5.65;2.78;;;14.70;99.90;;;;;;5073498;28;20486;-74
2022/07/05 00:38:10;;;;;;;3.50;2.97;;;14.70;99.90;;;;;;5069969;28;20498;-73
2022/07/05 00:40:35;;;;;;;4.78;3.00;;;14.70;99.90;;;;;;5057529;28;20043;-73
2022/07/05 00:43:01;;;;;;;6.35;3.33;;;14.70;99.90;;;;;;5053628;28;20048;-73
2022/07/05 00:45:26;;;;;;;4.32;3.20;;;14.60;99.90;;;;;;5080560;28;20046;-73
2022/07/05 00:47:52;;;;;;;4.65;3.53;;;14.60;99.90;;;;;;5084899;28;20121;-72
2022/07/05 00:50:18;;;;;;;6.10;4.57;;;14.60;99.90;;;;;;5054145;28;20051;-73
2022/07/05 00:52:44;;;;;;;7.50;4.78;;;14.60;99.90;;;;;;5063277;28;20185;-72
2022/07/05 00:55:10;;;;;;;5.93;4.53;;;14.60;99.90;;;;;;5087196;28;20044;-73
2022/07/05 00:57:36;;;;;;;6.63;4.78;;;14.70;99.90;;;;;;5085498;28;20091;-72
2022/07/05 01:00:03;;;;;;;6.35;4.63;;;14.70;99.90;;;;;;5054345;28;20051;-73
2022/07/05 01:02:28;;;;;;;6.30;4.82;;;14.70;99.90;;;;;;5059525;28;20059;-73
2022/07/05 01:04:54;;;;;;;6.05;4.80;;;14.80;99.90;;;;;;5083861;28;20056;-72
2022/07/05 01:07:22;;;;;;;7.53;5.07;;;14.70;99.90;;;;;;5065571;28;20037;-73
2022/07/05 01:09:48;;;;;;;6.72;4.40;;;14.70;99.90;;;;;;5071086;28;20048;-73
2022/07/05 01:12:14;;;;;;;7.32;4.63;;;14.70;99.90;;;;;;5084744;28;20040;-73
2022/07/05 01:14:42;;;;;;;5.37;4.43;;;14.70;99.90;;;;;;5069670;28;20126;-72
2022/07/05 01:17:07;;;;;;;5.32;4.47;;;14.70;99.90;;;;;;5075147;28;20313;-73
2022/07/05 01:19:33;;;;;;;5.70;4.47;;;14.60;99.90;;;;;;5086377;28;20059;-72
2022/07/05 01:22:03;;;;;;;6.57;4.35;;;14.60;99.90;;;;;;5075733;28;20548;-73
2022/07/05 01:24:29;;;;;;;5.00;4.50;;;14.60;99.90;;;;;;5072404;28;20075;-73
2022/07/05 01:26:55;;;;;;;5.57;4.93;;;14.60;99.90;;;;;;5088202;28;20074;-73
2022/07/05 01:29:20;;;;;;;5.35;4.60;;;14.60;99.90;;;;;;5085517;28;20554;-73
2022/07/05 01:31:46;;;;;;;6.65;4.97;;;14.60;99.90;;;;;;5082247;28;20135;-73
2022/07/05 01:34:12;;;;;;;6.20;4.50;;;14.60;99.90;;;;;;5061054;28;20445;-73
2022/07/05 01:36:38;;;;;;;7.28;4.93;;;14.60;99.90;;;;;;5067150;28;20048;-73
2022/07/05 01:39:07;;;;;;;7.72;4.85;;;14.60;99.90;;;;;;5070896;28;20067;-73
2022/07/05 01:41:32;;;;;;;7.70;5.30;;;14.50;99.90;;;;;;5055570;28;20546;-72
2022/07/05 01:43:59;;;;;;;6.72;5.03;;;14.50;99.90;;;;;;5081126;28;20102;-73
2022/07/05 01:46:29;;;;;;;9.25;5.25;;;14.50;99.90;;;;;;5059805;28;20032;-73
2022/07/05 01:48:58;;;;;;;8.63;5.50;;;14.50;99.90;;;;;;5061584;28;20139;-73
2022/07/05 01:51:29;;;;;;;7.30;6.07;;;14.40;99.90;;;;;;5068009;28;20059;-73
2022/07/05 01:53:55;;;;;;;8.90;6.60;;;14.40;99.90;;;;;;5055583;28;20134;-73
2022/07/05 01:56:20;;;;;;;7.50;6.10;;;14.40;99.90;;;;;;5068993;28;20515;-73
2022/07/05 01:58:46;;;;;;;9.32;6.30;;;14.40;99.90;;;;;;5062168;28;20055;-73
2022/07/05 02:01:13;;;;;;;8.30;6.47;;;14.50;99.90;;;;;;5069700;28;20084;-72
2022/07/05 02:03:42;;;;;;;11.27;6.05;;;14.50;99.90;;;;;;5077100;28;20056;-72
2022/07/05 02:06:10;;;;;;;8.60;6.68;;;14.50;99.90;;;;;;5075912;28;20445;-72
2022/07/05 02:08:36;;;;;;;6.60;5.65;;;14.40;99.90;;;;;;5069556;28;20051;-72
2022/07/05 02:11:03;;;;;;;8.02;5.85;;;14.50;99.90;;;;;;5070540;28;20092;-72
2022/07/05 02:13:29;;;;;;;;;;;14.50;99.90;;;;;;5082064;28;20085;-72
2022/07/05 02:15:54;;;;;;;6.80;6.13;;;14.40;99.90;;;;;;5087173;28;20007;-72
2022/07/05 02:18:20;;;;;;;6.85;5.95;;;14.40;99.90;;;;;;5069390;28;20036;-72
2022/07/05 02:20:45;;;;;;;8.18;6.13;;;14.40;99.90;;;;;;5087903;28;20092;-72
2022/07/05 02:23:11;;;;;;;8.73;6.07;;;14.40;99.90;;;;;;5088798;28;20078;-72
2022/07/05 02:25:37;;;;;;;6.40;5.80;;;14.40;99.90;;;;;;5069078;28;20072;-72
2022/07/05 02:28:03;;;;;;;8.85;6.00;;;14.30;99.90;;;;;;5064321;28;20036;-72
2022/07/05 02:30:29;;;;;;;8.05;6.03;;;14.30;99.90;;;;;;5055075;28;20086;-72
2022/07/05 02:32:54;;;;;;;7.68;6.13;;;14.20;99.90;;;;;;5079799;28;20044;-72
2022/07/05 02:35:20;;;;;;;9.48;6.15;;;14.20;99.90;;;;;;5081809;28;20090;-72
2022/07/05 02:37:46;;;;;;;7.40;6.70;;;14.20;99.90;;;;;;5060468;28;20518;-72
2022/07/05 02:40:13;;;;;;;8.75;6.70;;;14.20;99.90;;;;;;5081646;28;20110;-72
2022/07/05 02:42:40;;;;;;;6.78;6.07;;;14.10;99.90;;;;;;5083147;28;20406;-72
2022/07/05 02:45:06;;;;;;;8.05;6.05;;;14.00;99.90;;;;;;5066883;28;20044;-72
2022/07/05 02:47:34;;;;;;;9.57;7.18;;;14.00;99.90;;;;;;5066646;28;20425;-72
2022/07/05 02:50:10;;;;;;;10.63;7.38;;;14.00;99.90;;;;;;5056645;28;20040;-72
2022/07/05 02:52:36;;;;;;;7.82;6.95;;;14.00;99.90;;;;;;5059649;28;20072;-72
2022/07/05 02:55:03;;;;;;;8.02;7.30;;;13.90;99.90;;;;;;5051829;28;20068;-72
2022/07/05 02:57:29;;;;;;;8.68;7.82;;;13.90;99.90;;;;;;5064656;28;20048;-72
2022/07/05 02:59:56;;;;;;;9.35;7.97;;;13.90;99.90;;;;;;5066609;28;20238;-72
2022/07/05 03:02:22;;;;;;;9.55;8.15;;;14.00;99.90;;;;;;5061207;28;20508;-72
2022/07/05 03:04:48;;;;;;;9.63;8.02;;;13.90;99.90;;;;;;5072431;28;20055;-72
2022/07/05 03:07:14;;;;;;;9.75;8.30;;;13.90;99.90;;;;;;5087058;28;20046;-72
2022/07/05 03:09:39;;;;;;;8.93;8.13;;;13.90;99.90;;;;;;5065831;28;20582;-72
2022/07/05 03:12:06;;;;;;;11.60;8.75;;;13.90;99.90;;;;;;5069707;28;20050;-72
2022/07/05 03:14:31;;;;;;;10.73;8.80;;;13.90;99.90;;;;;;5087801;28;20040;-72
2022/07/05 03:16:57;;;;;;;9.70;8.70;;;13.90;99.90;;;;;;5091200;28;20492;-72
2022/07/05 03:19:23;;;;;;;12.35;8.68;;;13.90;99.90;;;;;;5075436;28;20051;-72
2022/07/05 03:21:48;;;;;;;9.75;8.70;;;13.90;99.90;;;;;;5071815;28;20047;-72
2022/07/05 03:24:14;;;;;;;12.27;9.30;;;13.80;99.90;;;;;;5063364;28;20051;-72
2022/07/05 03:26:40;;;;;;;10.02;9.00;;;13.80;99.90;;;;;;5092336;28;20077;-72
2022/07/05 03:29:05;;;;;;;9.90;8.90;;;13.80;99.90;;;;;;5071842;28;20044;-72
2022/07/05 03:31:31;;;;;;;11.02;8.80;;;13.80;99.90;;;;;;5072869;28;20399;-72
2022/07/05 03:33:56;;;;;;;10.00;8.60;;;13.70;99.90;;;;;;5073544;28;20178;-72
2022/07/05 03:36:22;;;;;;;11.23;8.98;;;13.70;99.90;;;;;;5090104;28;20432;-72
2022/07/05 03:38:48;;;;;;;10.82;9.13;;;13.70;99.90;;;;;;5072013;28;20043;-72
2022/07/05 03:41:14;;;;;;;9.75;8.80;;;13.70;99.90;;;;;;5091543;28;20147;-72
2022/07/05 03:43:39;;;;;;;12.07;8.70;;;13.70;99.90;;;;;;5071667;28;20079;-72
2022/07/05 03:46:05;;;;;;;11.35;9.30;;;13.70;99.90;;;;;;5091561;28;20036;-72
2022/07/05 03:48:31;;;;;;;10.43;8.85;;;13.70;99.90;;;;;;5073256;28;20079;-72
2022/07/05 03:50:56;;;;;;;10.10;9.10;;;13.70;99.90;;;;;;5089200;28;20452;-72
2022/07/05 03:53:22;;;;;;;10.07;8.88;;;13.70;99.90;;;;;;5064046;28;20048;-72
2022/07/05 03:55:47;;;;;;;9.52;8.55;;;13.70;99.90;;;;;;5071235;28;20063;-72
2022/07/05 03:58:13;;;;;;;9.40;8.40;;;13.80;99.90;;;;;;5072977;28;20480;-72
2022/07/05 04:00:39;;;;;;;8.90;7.97;;;13.80;99.90;;;;;;5072065;28;20507;-72
2022/07/05 04:03:04;;;;;;;13.50;8.48;;;13.80;99.90;;;;;;5084034;28;20051;-72
2022/07/05 04:05:30;;;;;;;10.15;8.50;;;13.80;99.90;;;;;;5052319;28;20130;-72
2022/07/05 04:07:56;;;;;;;9.60;8.07;;;13.90;99.90;;;;;;5071147;28;20052;-72
2022/07/05 04:10:22;;;;;;;10.70;8.45;;;13.90;99.90;;;;;;5070673;28;20037;-72
2022/07/05 04:12:48;;;;;;;10.52;7.82;;;13.90;99.90;;;;;;5070715;28;20047;-72
2022/07/05 04:15:14;;;;;;;10.65;8.07;;;14.00;99.90;;;;;;5071248;28;20679;-72
2022/07/05 04:17:51;;;;;;;8.93;7.85;;;14.00;99.90;;;;;;5089106;28;20036;-72
2022/07/05 04:20:17;;;;;;;8.63;7.70;;;14.10;99.90;;;;;;5071641;28;20036;-72
2022/07/05 04:22:42;;;;;;;10.02;7.95;;;14.10;99.90;;;;;;5070730;28;20051;-72
2022/07/05 04:25:17;;;;;;;10.45;8.55;;;14.10;99.90;;;;;;5053526;28;20681;-72
2022/07/05 04:27:54;;;;;;;10.18;7.72;;;14.20;99.90;;;;;;5089385;28;20044;-72
2022/07/05 04:30:21;;;;;;;9.25;7.75;;;14.20;99.90;;;;;;5068419;28;20092;-72
2022/07/05 04:32:47;;;;;;;8.70;7.80;;;14.30;99.90;;;;;;5069560;28;20074;-72
2022/07/05 04:35:14;;;;;;;8.55;7.63;;;14.30;99.90;;;;;;5071476;28;20068;-72
2022/07/05 04:37:41;;;;;;;9.32;8.43;;;14.40;99.90;;;;;;5072800;28;20054;-72
2022/07/05 04:40:09;;;;;;;10.77;7.90;;;14.50;99.90;;;;;;5089710;28;20070;-72
2022/07/05 04:42:35;;;;;;;9.00;8.10;;;14.50;99.90;;;;;;5068781;28;20056;-72
2022/07/05 04:45:00;;;;;;;10.27;8.43;;;14.60;99.90;;;;;;5067375;28;20037;-72
2022/07/05 04:47:26;;;;;;;10.00;7.75;;;14.60;99.90;;;;;;5065820;28;20060;-72
2022/07/05 04:49:53;;;;;;;8.90;8.00;;;14.60;99.90;;;;;;5072000;28;20037;-72
2022/07/05 04:52:19;;;;;;;9.88;8.88;;;14.60;99.90;;;;;;5068113;28;20079;-72
2022/07/05 04:54:44;;;;;;;9.98;8.95;;;14.70;99.90;;;;;;5069797;28;20071;-72
2022/07/05 04:57:10;;;;;;;9.48;8.05;;;14.80;99.90;;;;;;5068939;28;20045;-72
2022/07/05 04:59:36;;;;;;;10.90;8.38;;;14.80;99.90;;;;;;5067805;28;20056;-72
2022/07/05 05:02:02;;;;;;;10.55;8.43;;;14.90;99.90;;;;;;5068359;28;20091;-72
2022/07/05 05:04:27;;;;;;;10.88;8.68;;;14.90;99.90;;;;;;5059107;28;20045;-72
2022/07/05 05:06:53;;;;;;;10.18;8.10;;;15.00;99.90;;;;;;5065425;28;20053;-72
2022/07/05 05:09:18;;;;;;;11.90;9.00;;;15.10;99.90;;;;;;5066226;28;20075;-72
2022/07/05 05:11:44;;;;;;;10.38;9.13;;;15.20;99.90;;;;;;5067926;28;20045;-72
2022/07/05 05:14:10;;;;;;;11.27;9.15;;;15.20;99.90;;;;;;5069130;28;20101;-72
2022/07/05 05:16:35;;;;;;;9.63;8.73;;;15.30;99.90;;;;;;5068286;28;20040;-72
2022/07/05 05:19:01;;;;;;;10.32;9.32;;;15.30;99.90;;;;;;5063431;28;20055;-72
2022/07/05 05:21:27;;;;;;;11.13;9.00;;;15.40;99.90;;;;;;5060820;28;20207;-72
2022/07/05 05:23:52;;;;;;;9.60;8.65;;;15.40;99.90;;;;;;5054267;28;20128;-72
2022/07/05 05:26:18;;;;;;;9.88;8.98;;;15.60;99.90;;;;;;5065910;28;20170;-73
2022/07/05 05:28:43;;;;;;;9.60;8.70;;;15.70;99.90;;;;;;5065145;28;20036;-72
2022/07/05 05:31:09;;;;;;;12.68;9.30;;;15.80;99.90;;;;;;5059585;28;20044;-72
2022/07/05 05:33:35;;;;;;;9.75;8.75;;;15.80;99.90;;;;;;5049485;28;20110;-72
2022/07/05 05:36:01;;;;;;;10.27;8.48;;;15.90;99.90;;;;;;5047230;28;20048;-72
2022/07/05 05:38:27;;;;;;;10.32;8.82;;;16.00;99.90;;;;;;5048213;28;20045;-72
2022/07/05 05:40:53;;;;;;;9.45;8.52;;;16.10;99.90;;;;;;5073103;28;20105;-72
2022/07/05 05:43:18;;;;;;;10.27;8.85;;;16.20;99.90;;;;;;5079106;28;20048;-70
2022/07/05 05:45:44;;;;;;;9.48;8.60;;;16.30;99.90;;;;;;5067853;28;20433;-72
2022/07/05 05:48:10;;;;;;;11.20;8.20;;;16.30;99.90;;;;;;5065432;28;20511;-72
2022/07/05 05:50:38;;;;;;;10.20;9.18;;;16.40;99.90;;;;;;5074163;28;20075;-74
2022/07/05 05:53:04;;;;;;;9.80;8.75;;;16.50;99.90;;;;;;5082739;28;20142;-72
2022/07/05 05:55:31;;;;;;;9.27;8.18;;;16.50;99.90;;;;;;5088662;28;20155;-74
2022/07/05 05:58:09;;;;;;;10.23;8.70;;;16.60;99.90;;;;;;5062498;28;20145;-77
2022/07/05 06:00:35;;;;;;;8.57;7.68;;;16.70;99.90;;;;;;5083886;28;20040;-77
2022/07/05 06:03:01;;;;;;;9.15;7.90;;;16.70;99.90;;;;;;5084398;28;20119;-75
2022/07/05 06:05:26;;;;;;;11.05;8.50;;;16.80;99.90;;;;;;5084369;28;20036;-75
2022/07/05 06:07:54;;;;;;;10.20;8.68;;;16.80;99.90;;;;;;5084702;28;20092;-75
2022/07/05 06:10:31;;;;;;;10.57;8.63;;;16.90;99.90;;;;;;5068012;28;20044;-75
2022/07/05 06:13:08;;;;;;;10.95;8.40;;;17.00;99.90;;;;;;5063798;28;20136;-75
2022/07/05 06:15:35;;;;;;;9.35;8.25;;;17.00;99.90;;;;;;5072420;28;20585;-75
2022/07/05 06:18:01;;;;;;;9.95;8.38;;;17.10;99.90;;;;;;5077947;28;20048;-75
2022/07/05 06:20:31;;;;;;;10.40;7.78;;;17.20;99.90;;;;;;5073813;28;20040;-75
2022/07/05 06:22:58;;;;;;;10.65;7.65;;;17.20;99.90;;;;;;5087719;28;20048;-75
2022/07/05 06:25:24;;;;;;;9.15;7.40;;;17.30;99.90;;;;;;5068316;28;20047;-75
2022/07/05 06:28:10;;;;;;;11.07;6.70;;;17.30;99.90;;;;;;5081196;28;20032;-75
2022/07/05 06:30:37;;;;;;;7.88;6.18;;;17.40;99.90;;;;;;5070514;28;20541;-75
2022/07/05 06:33:03;;;;;;;7.50;5.90;;;17.40;99.90;;;;;;5082932;28;20036;-75
2022/07/05 06:35:30;;;;;;;7.90;6.40;;;17.50;99.90;;;;;;5086403;28;20549;-75
2022/07/05 06:38:07;;;;;;;8.10;6.15;;;17.60;99.90;;;;;;5070029;28;20067;-75
2022/07/05 06:40:35;;;;;;;6.18;5.55;;;17.70;99.90;;;;;;5066702;28;20032;-75
2022/07/05 06:43:03;;;;;;;10.48;6.00;;;17.70;99.90;;;;;;5074645;28;20048;-75
2022/07/05 06:45:28;;;;;;;9.00;6.07;;;17.70;99.90;;;;;;5083076;28;20063;-75
2022/07/05 06:47:56;;;;;;;8.82;5.60;;;17.80;99.90;;;;;;5079363;28;20438;-72
2022/07/05 06:50:21;;;;;;;;;;;17.90;99.90;;;;;;5070893;28;20140;-71
2022/07/05 06:52:47;;;;;;;9.13;5.10;;;17.90;99.90;;;;;;5074297;28;19920;-71
2022/07/05 06:55:12;;;;;;;6.28;5.10;;;17.90;99.90;;;;;;5072627;28;20035;-72
2022/07/05 06:57:38;;;;;;;6.55;5.00;;;18.00;99.90;;;;;;5052172;28;20070;-72
2022/07/05 07:00:05;;;;;;;8.52;4.93;;;18.20;99.90;;;;;;5055113;28;20075;-72
2022/07/05 07:02:31;;;;;;;5.25;4.22;;;18.30;99.90;;;;;;5060667;28;20494;-73
2022/07/05 07:04:56;;;;;;;5.57;3.85;;;18.40;99.90;;;;;;5087617;28;20051;-72
2022/07/05 07:10:07;;;;;;;7.28;4.55;;;18.50;99.90;;;;;;5059948;28;20052;-71
2022/07/05 07:12:32;;;;;;;9.15;3.90;;;18.60;99.90;;;;;;5049814;28;20101;-72
2022/07/05 07:14:58;;;;;;;6.22;3.80;;;18.70;99.90;;;;;;5066228;28;20048;-71
2022/07/05 07:17:24;;;;;;;5.43;3.20;;;18.80;99.90;;;;;;5070682;28;20443;-71
2022/07/05 07:19:50;;;;;;;5.22;3.47;;;18.80;99.90;;;;;;5076244;28;20036;-71
2022/07/05 07:22:16;;;;;;;6.07;3.60;;;18.80;99.90;;;;;;5065791;28;20044;-71
2022/07/05 07:24:41;;;;;;;5.57;3.22;;;18.70;99.90;;;;;;5071596;28;20479;-71
2022/07/05 07:27:08;;;;;;;7.20;3.70;;;18.70;99.90;;;;;;5073092;28;20043;-73
2022/07/05 07:29:38;;;;;;;6.53;3.47;;;18.70;99.90;;;;;;5085105;28;20040;-71
2022/07/05 07:32:06;;;;;;;7.18;3.65;;;18.80;99.90;;;;;;5084879;28;20044;-72
2022/07/05 07:34:33;;;;;;;5.40;3.15;;;18.80;99.90;;;;;;5084305;28;20040;-71
2022/07/05 07:36:59;;;;;;;4.75;3.33;;;18.90;99.90;;;;;;5068822;28;20387;-72
2022/07/05 07:39:26;;;;;;;6.85;2.95;;;19.10;99.90;;;;;;5068287;28;20064;-72
2022/07/05 07:41:52;;;;;;;5.30;3.08;;;19.10;99.90;;;;;;5068646;28;20056;-69
2022/07/05 07:44:18;;;;;;;7.35;2.80;;;19.20;99.90;;;;;;5084302;28;20391;-70
2022/07/05 07:46:44;;;;;;;7.10;2.85;;;19.30;99.90;;;;;;5069170;28;20384;-71
2022/07/05 07:49:10;;;;;;;3.95;2.42;;;19.40;99.90;;;;;;5073708;28;20052;-70
2022/07/05 07:51:36;;;;;;;6.72;2.42;;;19.50;99.90;;;;;;5070329;28;20535;-71
2022/07/05 07:54:02;;;;;;;4.88;2.55;;;19.60;99.90;;;;;;5076127;28;20058;-70
2022/07/05 07:56:28;;;;;;;6.35;2.50;;;19.60;99.90;;;;;;5065210;28;20510;-69
2022/07/05 07:58:54;;;;;;;7.22;2.75;;;19.70;99.90;;;;;;5084815;28;20040;-70
2022/07/05 08:01:20;;;;;;;7.53;2.47;;;19.80;99.90;;;;;;5074860;28;20047;-70
2022/07/05 08:03:46;;;;;;;5.13;2.13;;;19.80;99.90;;;;;;5067779;28;20040;-70
2022/07/05 08:06:12;;;;;;;5.07;2.22;;;19.80;99.90;;;;;;5067977;28;20471;-70
2022/07/05 08:08:38;;;;;;;5.53;2.20;;;19.80;99.90;;;;;;5080932;28;20128;-70
2022/07/05 08:11:05;;;;;;;4.35;2.40;;;19.80;99.90;;;;;;5078809;28;20036;-70
2022/07/05 08:13:31;;;;;;;4.28;2.17;;;19.90;99.90;;;;;;5057560;28;20131;-70
2022/07/05 08:15:57;;;;;;;6.18;1.80;;;19.80;99.90;;;;;;5058472;28;20131;-72
2022/07/05 08:23:52;;;;;;;6.75;1.90;;;19.90;99.90;;;;;;5087397;28;20122;-71
2022/07/05 08:26:17;;;;;;;4.38;1.75;;;20.10;99.90;;;;;;5069988;28;20181;-72
2022/07/05 08:28:43;;;;;;;1.90;1.35;;;20.10;99.90;;;;;;5066644;28;20372;-70
2022/07/05 08:31:09;;;;;;;3.83;1.80;;;20.20;99.90;;;;;;5075951;28;20051;-71
2022/07/05 08:33:34;;;;;;;3.80;1.35;;;20.10;99.90;;;;;;5058318;28;20040;-71
2022/07/05 08:36:00;;;;;;;5.78;1.60;;;20.00;99.90;;;;;;5068729;28;20096;-72
2022/07/05 08:38:26;;;;;;;7.22;2.08;;;20.00;99.90;;;;;;5083691;28;20953;-72
2022/07/05 08:40:54;;;;;;;4.57;2.00;;;19.90;99.90;;;;;;5076551;28;20045;-72
2022/07/05 08:43:22;;;;;;;4.28;2.15;;;19.90;99.90;;;;;;5082698;28;20081;-74
2022/07/05 08:45:50;;;;;;;5.47;2.30;;;19.90;99.90;;;;;;5078883;28;20046;-71
2022/07/05 08:48:16;;;;;;;;;;;19.90;99.90;;;;;;5076506;28;20301;-72
2022/07/05 08:50:43;;;;;;;5.68;2.08;;;19.90;99.90;;;;;;5064579;28;19919;-72
2022/07/05 08:53:09;;;;;;;6.43;2.17;;;20.00;99.90;;;;;;5064720;28;20514;-72
2022/07/05 08:55:35;;;;;;;6.87;2.07;;;20.10;99.90;;;;;;5090057;28;20044;-72
2022/07/05 08:58:01;;;;;;;4.47;2.00;;;20.20;99.90;;;;;;5067949;28;20043;-72
2022/07/05 09:00:27;;;;;;;2.70;1.77;;;20.30;99.90;;;;;;5088185;28;20040;-73
2022/07/05 09:02:54;;;;;;;4.50;1.95;;;20.30;99.90;;;;;;5080613;28;20042;-73
2022/07/05 09:05:23;;;;;;;6.77;2.00;;;20.30;99.90;;;;;;5055971;28;20105;-73
2022/07/05 09:07:57;;;;;;;5.25;2.00;;;20.30;99.90;;;;;;5074816;28;20696;-72
2022/07/05 09:10:25;;;;;;;5.88;2.15;;;20.20;99.90;;;;;;5080339;28;20040;-71
2022/07/05 09:12:51;;;;;;;3.67;1.90;;;20.20;99.90;;;;;;5079887;28;20574;-71
2022/07/05 09:15:17;;;;;;;6.03;1.70;;;20.10;99.90;;;;;;5062040;28;20036;-72
2022/07/05 09:17:46;;;;;;;2.58;1.30;;;20.10;99.90;;;;;;5081886;28;20029;-72
2022/07/05 09:20:19;;;;;;;3.25;1.60;;;20.10;99.90;;;;;;5076298;28;20056;-73
2022/07/05 09:22:55;;;;;;;5.03;1.80;;;20.10;99.90;;;;;;5079389;28;20036;-71
2022/07/05 09:25:24;;;;;;;3.70;1.52;;;20.30;99.90;;;;;;5070584;28;20044;-72
2022/07/05 09:27:54;;;;;;;7.07;1.95;;;20.40;99.90;;;;;;5063618;28;20791;-72
2022/07/05 09:30:24;;;;;;;5.93;1.60;;;20.50;99.90;;;;;;5070004;28;20047;-72
2022/07/05 09:33:14;;;;;;;2.85;1.55;;;20.50;99.90;;;;;;5084849;28;20058;-72
2022/07/05 09:35:52;;;;;;;4.78;1.60;;;20.50;99.90;;;;;;5089419;28;20052;-72
2022/07/05 09:38:19;;;;;;;4.53;1.45;;;20.40;99.90;;;;;;5074141;28;20426;-72
2022/07/05 09:40:48;;;;;;;3.70;1.73;;;20.20;99.90;;;;;;5082606;28;20049;-76
2022/07/05 09:43:15;;;;;;;5.60;1.40;;;20.10;99.90;;;;;;5067634;28;20120;-72
2022/07/05 09:46:02;;;;;;;4.65;1.50;;;20.00;99.90;;;;;;5070249;28;20119;-72
2022/07/05 09:48:32;;;;;;;4.88;1.60;;;19.90;99.90;;;;;;5081992;28;20413;-72
2022/07/05 09:51:12;;;;;;;5.60;1.50;;;19.90;99.90;;;;;;5056307;28;20040;-73
2022/07/05 09:54:04;;;;;;;3.45;1.40;;;19.90;99.90;;;;;;5059883;28;20127;-73
2022/07/05 09:56:42;;;;;;;4.32;1.50;;;20.10;99.90;;;;;;5070147;28;20040;-73
2022/07/05 09:59:21;;;;;;;4.95;1.52;;;20.10;99.90;;;;;;5059578;28;20532;-73
2022/07/05 10:01:47;;;;;;;3.60;1.80;;;20.20;99.90;;;;;;5069925;28;20120;-74
2022/07/05 10:04:13;;;;;;;3.00;1.50;;;20.20;99.90;;;;;;5074579;28;20119;-74
2022/07/05 10:06:38;;;;;;;4.03;1.58;;;20.30;99.90;;;;;;5087169;28;20050;-73
2022/07/05 10:09:05;;;;;;;4.65;1.55;;;20.40;99.90;;;;;;5070923;28;20043;-75
2022/07/05 10:11:31;;;;;;;6.10;1.50;;;20.60;99.90;;;;;;5046081;28;20123;-74
2022/07/05 10:13:58;;;;;;;4.93;1.50;;;20.60;99.90;;;;;;5072540;28;20127;-75
2022/07/05 10:16:24;;;;;;;5.18;1.70;;;20.60;99.90;;;;;;5059804;28;20101;-72
2022/07/05 10:18:55;;;;;;;4.85;1.52;;;20.50;99.90;;;;;;5072018;28;20063;-71
2022/07/05 10:21:23;;;;;;;3.72;1.17;;;20.50;99.90;;;;;;5075309;28;20127;-82
2022/07/05 10:23:53;;;;;;;4.22;1.40;;;20.50;99.90;;;;;;5058675;28;20052;-72
2022/07/05 10:26:19;;;;;;;4.45;1.40;;;20.50;99.90;;;;;;5056691;28;20047;-71
2022/07/05 10:28:49;;;;;;;5.23;1.90;;;20.60;99.90;;;;;;5060260;28;20656;-72
2022/07/05 10:31:16;;;;;;;4.43;1.38;;;20.90;99.90;;;;;;5085755;28;20447;-72
2022/07/05 10:33:42;;;;;;;4.10;1.48;;;21.10;99.90;;;;;;5069466;28;20111;-72
2022/07/05 10:36:10;;;;;;;4.15;1.42;;;21.30;99.90;;;;;;5058770;28;20118;-72
2022/07/05 10:38:38;;;;;;;4.80;1.30;;;21.40;99.90;;;;;;5061877;28;20046;-72
2022/07/05 10:41:08;;;;;;;4.63;1.40;;;21.50;99.40;;;;;;5081279;28;20059;-74
2022/07/05 10:43:34;;;;;;;4.25;1.45;;;21.30;98.90;;;;;;5055043;28;20394;-74
2022/07/05 10:46:02;;;;;;;5.20;1.52;;;21.10;99.90;;;;;;5076313;28;20352;-74
2022/07/05 10:48:29;;;;;;;6.03;1.50;;;20.90;99.90;;;;;;5061850;28;20071;-74
2022/07/05 10:50:55;;;;;;;3.55;1.40;;;20.80;99.90;;;;;;5070760;28;20071;-74
2022/07/05 10:53:29;;;;;;;4.80;1.30;;;20.70;99.90;;;;;;5087730;28;20046;-74
2022/07/05 10:55:59;;;;;;;4.85;1.50;;;20.60;99.90;;;;;;5079020;28;20546;-74
2022/07/05 10:58:37;;;;;;;2.78;1.25;;;20.60;99.90;;;;;;5087398;28;20042;-74
2022/07/05 11:01:12;;;;;;;5.70;1.50;;;20.60;99.90;;;;;;5068893;28;20079;-74
2022/07/05 11:04:00;;;;;;;3.17;1.15;;;20.60;99.90;;;;;;5058946;28;20050;-75
2022/07/05 11:06:29;;;;;;;2.25;1.30;;;20.70;99.90;;;;;;5087727;28;20495;-74
2022/07/05 11:09:02;;;;;;;3.60;1.40;;;20.80;99.90;;;;;;5078008;28;20119;-74
2022/07/05 11:11:28;;;;;;;6.63;1.65;;;21.00;99.90;;;;;;5088607;28;20127;-74
2022/07/05 11:13:59;;;;;;;5.15;1.70;;;21.20;98.70;;;;;;5068640;28;20139;-74
2022/07/05 11:16:33;;;;;;;5.85;1.73;;;21.20;97.50;;;;;;5080858;28;20040;-75
2022/07/05 11:19:07;;;;;;;5.50;1.35;;;21.10;97.20;;;;;;5057195;28;20128;-74
2022/07/05 11:21:34;;;;;;;2.60;1.40;;;21.00;97.70;;;;;;5064189;28;20055;-74
2022/07/05 11:24:19;;;;;;;3.47;1.30;;;20.90;97.30;;;;;;5082146;28;20043;-75
2022/07/05 11:26:45;;;;;;;4.07;1.50;;;20.90;97.80;;;;;;5079512;28;20368;-75
2022/07/05 11:29:42;;;;;;;5.82;1.63;;;21.00;98.40;;;;;;5057553;28;20076;-74
2022/07/05 11:32:10;;;;;;;6.82;1.50;;;21.00;97.20;;;;;;5077478;28;20380;-74
2022/07/05 11:34:37;;;;;;;3.28;1.20;;;21.00;98.20;;;;;;5055848;28;20047;-74
2022/07/05 11:37:26;;;;;;;3.55;1.40;;;21.00;99.60;;;;;;5075924;28;20048;-75
2022/07/05 11:40:09;;;;;;;3.95;1.55;;;21.20;99.70;;;;;;5079803;28;20047;-74
2022/07/05 11:42:37;;;;;;;3.42;1.33;;;21.40;99.40;;;;;;5064148;28;20053;-74
2022/07/05 11:45:05;;;;;;;4.43;1.40;;;21.30;99.90;;;;;;5076671;28;20044;-76
2022/07/05 11:47:31;;;;;;;3.63;1.50;;;21.20;99.40;;;;;;5084074;28;20085;-74
2022/07/05 11:49:58;;;;;;;5.20;1.38;;;21.10;99.90;;;;;;5083740;28;20049;-75
2022/07/05 11:52:27;;;;;;;5.93;1.50;;;21.10;99.90;;;;;;5084246;28;20047;-74
2022/07/05 11:54:53;;;;;;;6.38;1.67;;;21.10;99.90;;;;;;5064094;28;20044;-75
2022/07/05 11:57:20;;;;;;;8.25;1.58;;;21.30;99.90;;;;;;5062141;28;20544;-75
2022/07/05 11:59:46;;;;;;;4.10;1.25;;;21.40;99.90;;;;;;5088254;28;20036;-75
2022/07/05 12:02:12;;;;;;;5.45;1.38;;;21.50;99.90;;;;;;5064553;28;20044;-75
2022/07/05 12:04:38;;;;;;;2.47;1.48;;;21.60;99.90;;;;;;5082487;28;20175;-74
2022/07/05 12:07:04;;;;;;;5.80;1.83;;;21.70;99.90;;;;;;5072079;28;20032;-75
2022/07/05 12:15:06;;;;;;;5.18;1.52;;;21.90;99.10;;;;;;5063003;28;20151;-75
2022/07/05 12:17:34;;;;;;;6.93;1.42;;;21.80;99.10;;;;;;5088013;28;20085;-74
2022/07/05 12:20:00;;;;;;;5.38;1.40;;;21.60;99.00;;;;;;5090555;28;20051;-75
2022/07/05 12:22:45;;;;;;;3.45;1.35;;;21.50;98.80;;;;;;5090209;28;20039;-75
2022/07/05 12:25:19;;;;;;;4.63;1.60;;;21.30;97.70;;;;;;5071695;28;20057;-75
2022/07/05 12:27:49;;;;;;;4.40;1.60;;;21.10;98.70;;;;;;5083885;28;20039;-75
2022/07/05 12:30:16;;;;;;;3.95;1.40;;;20.90;98.90;;;;;;5058591;28;20094;-75
2022/07/05 12:33:05;;;;;;;4.27;1.33;;;20.80;99.60;;;;;;5053313;28;20082;-75
2022/07/05 12:35:34;;;;;;;3.38;1.27;;;20.70;98.00;;;;;;5066387;28;20610;-75
2022/07/05 12:38:05;;;;;;;5.60;1.40;;;20.50;99.50;;;;;;5089203;28;20048;-74
2022/07/05 12:40:31;;;;;;;4.13;1.38;;;20.40;99.40;;;;;;5072113;28;20040;-75
2022/07/05 12:43:17;;;;;;;9.95;1.38;;;20.40;99.60;;;;;;5067745;28;20051;-74
2022/07/05 12:45:58;;;;;;;4.00;1.20;;;20.50;99.90;;;;;;5082946;28;20395;-75
2022/07/05 12:48:33;;;;;;;5.72;1.40;;;20.60;99.80;;;;;;5063869;28;20126;-77
2022/07/05 12:51:00;;;;;;;3.83;1.30;;;20.80;97.80;;;;;;5072731;28;20044;-79
2022/07/05 12:58:58;;;;;;;3.83;1.20;;;21.30;96.60;;;;;;5079741;28;20127;-75
2022/07/05 13:01:37;;;;;;;4.55;1.08;;;21.30;95.20;;;;;;5070559;28;20040;-74
2022/07/05 13:04:16;;;;;;;3.30;1.33;;;21.30;96.40;;;;;;5072774;28;20066;-72
2022/07/05 13:06:55;;;;;;;5.20;1.48;;;21.40;95.90;;;;;;5063445;28;20513;-73
2022/07/05 13:09:37;;;;;;;4.90;1.50;;;21.60;93.20;;;;;;5077637;28;20066;-73